createdAt,value
2018-09-19T00:02:14.718Z,14.57
2018-09-19T00:04:47.450Z,16.47
2018-09-19T00:07:19.311Z,14.90
2018-09-19T00:09:51.976Z,14.53
2018-09-19T00:12:24.463Z,16.03
2018-09-19T00:14:56.865Z,12.83
2018-09-19T00:17:28.558Z,14.63
2018-09-19T00:20:00.670Z,13.03
2018-09-19T00:22:32.673Z,14.23
2018-09-19T00:25:05.295Z,13.63
2018-09-19T00:27:37.193Z,14.43
2018-09-19T00:30:09.343Z,12.60
2018-09-19T00:32:41.642Z,12.97
2018-09-19T00:35:14.980Z,15.13
2018-09-19T00:37:47.521Z,13.53
2018-09-19T00:40:19.411Z,13.70
2018-09-19T00:42:51.590Z,12.30
2018-09-19T00:45:23.783Z,14.23
2018-09-19T00:47:55.787Z,12.03
2018-09-19T00:50:27.724Z,12.97
2018-09-19T00:52:59.715Z,10.90
2018-09-19T00:55:31.520Z,12.00
2018-09-19T00:58:03.882Z,11.97
2018-09-19T01:00:35.576Z,11.50
2018-09-19T01:03:07.387Z,13.10
2018-09-19T01:05:40.292Z,12.90
2018-09-19T01:08:12.454Z,12.47
2018-09-19T01:10:44.515Z,10.87
2018-09-19T01:13:21.720Z,10.37
2018-09-19T01:15:53.609Z,11.43
2018-09-19T01:18:27.349Z,10.23
2018-09-19T01:21:00.756Z,10.53
2018-09-19T01:23:32.577Z,10.63
2018-09-19T01:26:04.811Z,12.10
2018-09-19T01:28:36.640Z,12.07
2018-09-19T01:31:09.085Z,10.97
2018-09-19T01:33:42.146Z,10.23
2018-09-19T01:36:14.434Z,10.60
2018-09-19T01:38:46.415Z,9.70
2018-09-19T01:41:18.189Z,13.30
2018-09-19T01:43:50.414Z,12.17
2018-09-19T01:46:22.532Z,10.23
2018-09-19T01:48:54.399Z,10.43
2018-09-19T01:51:26.655Z,9.90
2018-09-19T01:53:58.657Z,11.97
2018-09-19T01:56:31.990Z,9.13
2018-09-19T01:59:05.064Z,9.73
2018-09-19T02:01:37.010Z,9.47
2018-09-19T02:04:08.895Z,8.53
2018-09-19T02:06:41.038Z,9.50
2018-09-19T02:09:14.592Z,9.80
2018-09-19T02:11:46.500Z,9.03
2018-09-19T02:14:19.637Z,12.00
2018-09-19T02:16:53.298Z,8.07
2018-09-19T02:19:28.664Z,8.60
2018-09-19T02:22:02.386Z,9.30
2018-09-19T02:24:38.837Z,10.30
2018-09-19T02:27:11.864Z,8.13
2018-09-19T02:29:46.377Z,9.27
2018-09-19T02:32:19.667Z,8.47
2018-09-19T02:34:53.550Z,9.87
2018-09-19T02:37:31.936Z,9.87
2018-09-19T02:40:09.728Z,9.10
2018-09-19T02:42:43.867Z,8.03
2018-09-19T02:45:19.770Z,7.63
2018-09-19T02:47:54.293Z,9.60
2018-09-19T02:50:28.864Z,7.23
2018-09-19T02:53:03.054Z,7.17
2018-09-19T02:55:38.975Z,10.97
2018-09-19T02:58:11.926Z,8.43
2018-09-19T03:00:48.290Z,7.30
2018-09-19T03:03:21.911Z,10.67
2018-09-19T03:05:57.270Z,7.77
2018-09-19T03:08:31.590Z,8.83
2018-09-19T03:11:04.250Z,7.77
2018-09-19T03:13:36.381Z,7.67
2018-09-19T03:16:08.150Z,7.83
2018-09-19T03:18:39.913Z,8.97
2018-09-19T03:21:11.991Z,8.17
2018-09-19T03:23:44.187Z,7.70
2018-09-19T03:26:18.760Z,6.90
2018-09-19T03:28:53.007Z,7.10
2018-09-19T03:31:26.606Z,8.63
2018-09-19T03:34:01.380Z,7.13
2018-09-19T03:36:35.160Z,7.70
2018-09-19T03:39:11.917Z,7.03
2018-09-19T03:41:47.548Z,6.90
2018-09-19T03:44:22.341Z,6.80
2018-09-19T03:46:57.762Z,7.00
2018-09-19T03:49:31.420Z,8.10
2018-09-19T03:52:06.690Z,9.07
2018-09-19T03:54:41.350Z,6.53
2018-09-19T03:57:15.156Z,6.70
2018-09-19T03:59:49.300Z,7.30
2018-09-19T04:02:23.243Z,7.90
2018-09-19T04:04:57.551Z,7.33
2018-09-19T04:07:31.303Z,6.77
2018-09-19T04:10:06.913Z,7.77
2018-09-19T04:34:31.019Z,6.90
2018-09-19T04:37:02.896Z,6.40
2018-09-19T04:39:35.069Z,10.07
2018-09-19T04:42:07.196Z,9.20
2018-09-19T04:44:39.208Z,6.90
2018-09-19T04:47:11.366Z,9.10
2018-09-19T04:49:43.132Z,7.50
2018-09-19T04:52:15.833Z,8.13
2018-09-19T04:54:47.911Z,7.83
2018-09-19T04:57:19.943Z,7.27
2018-09-19T04:59:52.323Z,8.50
2018-09-19T05:02:24.586Z,6.90
2018-09-19T05:04:56.683Z,7.97
2018-09-19T05:07:29.071Z,5.90
2018-09-19T05:10:01.051Z,6.83
2018-09-19T05:12:33.359Z,8.87
2018-09-19T05:15:05.428Z,7.10
2018-09-19T05:17:38.732Z,6.30
2018-09-19T05:20:11.207Z,7.97
2018-09-19T05:22:42.866Z,6.20
2018-09-19T05:25:15.176Z,6.30
2018-09-19T05:27:47.477Z,6.73
2018-09-19T05:30:19.657Z,6.63
2018-09-19T05:32:52.135Z,7.00
2018-09-19T05:35:24.208Z,5.27
2018-09-19T05:37:56.451Z,6.10
2018-09-19T05:40:28.358Z,9.03
2018-09-19T05:43:00.367Z,9.47
2018-09-19T05:45:32.508Z,9.30
2018-09-19T05:48:04.795Z,10.13
2018-09-19T05:50:37.186Z,10.40
2018-09-19T05:53:10.083Z,12.03
2018-09-19T05:55:42.303Z,7.73
2018-09-19T05:58:14.328Z,10.23
2018-09-19T06:00:46.460Z,9.23
2018-09-19T06:03:18.774Z,9.13
2018-09-19T06:05:51.152Z,9.23
2018-09-19T06:08:23.572Z,8.47
2018-09-19T06:10:55.853Z,9.37
2018-09-19T06:13:28.379Z,7.90
2018-09-19T06:16:00.503Z,9.87
2018-09-19T06:18:32.643Z,6.33
2018-09-19T06:21:04.968Z,8.77
2018-09-19T06:23:37.366Z,10.80
2018-09-19T06:26:09.863Z,6.87
2018-09-19T06:28:42.026Z,10.50
2018-09-19T06:31:14.403Z,11.00
2018-09-19T06:33:46.348Z,12.00
2018-09-19T06:36:18.402Z,13.27
2018-09-19T06:38:50.351Z,11.67
2018-09-19T06:41:22.577Z,6.97
2018-09-19T06:43:54.854Z,7.33
2018-09-19T06:46:27.185Z,13.07
2018-09-19T06:49:00.434Z,16.50
2018-09-19T06:51:32.604Z,11.83
2018-09-19T06:54:04.724Z,11.27
2018-09-19T06:56:36.725Z,13.27
2018-09-19T06:59:08.948Z,11.23
2018-09-19T07:01:41.162Z,11.50
2018-09-19T07:04:13.498Z,13.47
2018-09-19T07:06:45.623Z,10.37
2018-09-19T07:09:17.785Z,11.50
2018-09-19T07:11:50.012Z,13.70
2018-09-19T07:14:22.215Z,11.37
2018-09-19T07:16:54.299Z,11.17
2018-09-19T07:19:26.364Z,9.03
2018-09-19T07:21:58.758Z,10.03
2018-09-19T07:24:30.756Z,11.87
2018-09-19T07:27:03.172Z,9.47
2018-09-19T07:29:35.472Z,9.70
2018-09-19T07:32:07.739Z,11.47
2018-09-19T07:34:40.156Z,11.07
2018-09-19T07:37:12.182Z,9.57
2018-09-19T07:39:44.162Z,7.60
2018-09-19T07:42:16.084Z,8.53
2018-09-19T07:44:48.805Z,9.53
2018-09-19T07:47:21.304Z,10.00
2018-09-19T07:49:53.602Z,10.33
2018-09-19T07:52:27.026Z,8.90
2018-09-19T07:55:00.174Z,7.30
2018-09-19T07:57:32.171Z,7.37
2018-09-19T08:00:04.692Z,6.10
2018-09-19T08:02:36.929Z,6.90
2018-09-19T08:05:09.015Z,8.87
2018-09-19T08:07:41.743Z,10.33
2018-09-19T08:10:14.190Z,8.87
2018-09-19T08:12:46.134Z,6.20
2018-09-19T08:15:19.086Z,7.73
2018-09-19T08:17:51.341Z,10.17
2018-09-19T08:20:23.538Z,6.83
2018-09-19T08:22:56.128Z,10.57
2018-09-19T08:25:28.404Z,6.77
2018-09-19T08:28:00.836Z,6.97
2018-09-19T08:30:33.220Z,7.97
2018-09-19T08:33:05.215Z,9.37
2018-09-19T08:35:36.853Z,8.07
2018-09-19T08:38:08.791Z,8.80
2018-09-19T08:40:40.810Z,6.73
2018-09-19T08:43:13.011Z,6.57
2018-09-19T08:45:45.674Z,6.80
2018-09-19T08:48:18.006Z,9.90
2018-09-19T08:50:50.578Z,9.60
2018-09-19T08:53:22.635Z,5.23
2018-09-19T08:55:54.506Z,7.63
2018-09-19T08:58:26.299Z,7.73
2018-09-19T09:00:58.207Z,7.33
2018-09-19T09:03:30.199Z,11.83
2018-09-19T09:06:02.489Z,5.00
2018-09-19T09:08:34.197Z,7.40
2018-09-19T09:11:06.218Z,5.90
2018-09-19T09:13:39.295Z,5.67
2018-09-19T09:16:11.358Z,7.17
2018-09-19T09:18:43.379Z,5.70
2018-09-19T09:21:15.361Z,6.93
2018-09-19T09:23:47.685Z,6.60
2018-09-19T09:26:19.719Z,6.23
2018-09-19T09:28:51.777Z,5.33
2018-09-19T09:31:23.758Z,7.57
2018-09-19T09:33:56.396Z,5.23
2018-09-19T09:36:28.760Z,8.23
2018-09-19T09:39:01.112Z,8.47
2018-09-19T09:41:33.116Z,10.87
2018-09-19T09:44:05.237Z,6.57
2018-09-19T09:46:37.335Z,5.87
2018-09-19T09:49:09.585Z,7.00
2018-09-19T09:51:43.119Z,5.80
2018-09-19T09:54:15.443Z,7.50
2018-09-19T09:56:48.052Z,8.73
2018-09-19T09:59:20.741Z,6.60
2018-09-19T10:01:52.648Z,7.67
2018-09-19T10:04:24.631Z,7.40
2018-09-19T10:06:56.602Z,6.17
2018-09-19T10:09:28.674Z,4.83
2018-09-19T10:12:00.687Z,6.97
2018-09-19T10:14:32.551Z,8.93
2018-09-19T10:17:04.791Z,7.43
2018-09-19T10:19:37.117Z,6.83
2018-09-19T10:22:09.067Z,9.33
2018-09-19T10:24:41.226Z,16.53
2018-09-19T10:27:13.133Z,7.10
2018-09-19T10:29:45.435Z,6.73
2018-09-19T10:32:17.862Z,7.43
2018-09-19T10:34:50.018Z,6.73
2018-09-19T10:37:22.127Z,7.10
2018-09-19T10:39:54.109Z,6.93
2018-09-19T10:42:26.142Z,11.00
2018-09-19T10:44:58.191Z,8.60
2018-09-19T10:47:30.815Z,6.63
2018-09-19T10:50:03.253Z,8.20
2018-09-19T10:52:35.224Z,9.93
2018-09-19T10:55:07.659Z,7.27
2018-09-19T10:57:40.167Z,6.97
2018-09-19T11:00:12.909Z,7.20
2018-09-19T11:02:45.399Z,7.50
2018-09-19T11:05:17.896Z,5.93
2018-09-19T11:07:50.136Z,5.57
2018-09-19T11:10:22.136Z,6.53
2018-09-19T11:12:54.591Z,6.47
2018-09-19T11:15:27.278Z,5.83
2018-09-19T11:17:59.568Z,9.40
2018-09-19T11:20:31.999Z,7.40
2018-09-19T11:23:04.892Z,8.03
2018-09-19T11:25:37.209Z,5.67
2018-09-19T11:28:09.623Z,6.70
2018-09-19T11:30:42.144Z,6.77
2018-09-19T11:33:14.235Z,5.87
2018-09-19T11:35:47.096Z,4.40
2018-09-19T11:38:19.888Z,4.07
2018-09-19T11:40:52.929Z,6.00
2018-09-19T11:43:25.542Z,5.53
2018-09-19T11:45:58.026Z,4.87
2018-09-19T11:48:30.790Z,4.57
2018-09-19T11:51:03.097Z,4.97
2018-09-19T11:53:35.809Z,5.10
2018-09-19T11:56:08.162Z,5.27
2018-09-19T11:58:40.438Z,4.43
2018-09-19T12:01:12.856Z,5.47
2018-09-19T12:03:44.758Z,6.33
2018-09-19T12:06:17.144Z,4.10
2018-09-19T12:08:49.336Z,4.40
2018-09-19T12:11:21.726Z,6.30
2018-09-19T12:13:53.934Z,5.00
2018-09-19T12:16:26.371Z,5.33
2018-09-19T12:18:58.585Z,6.43
2018-09-19T12:21:31.194Z,4.13
2018-09-19T12:24:03.394Z,6.10
2018-09-19T12:26:35.675Z,7.50
2018-09-19T12:29:08.197Z,5.80
2018-09-19T12:34:29.648Z,5.40
2018-09-19T12:37:03.357Z,5.43
2018-09-19T12:39:35.551Z,3.87
2018-09-19T12:42:07.864Z,5.37
2018-09-19T12:44:39.800Z,6.23
2018-09-19T12:47:12.116Z,4.57
2018-09-19T12:49:44.785Z,4.60
2018-09-19T12:52:17.192Z,4.17
2018-09-19T12:54:49.590Z,4.70
2018-09-19T12:57:22.243Z,4.33
2018-09-19T12:59:54.577Z,5.97
2018-09-19T13:02:26.550Z,4.77
2018-09-19T13:04:59.554Z,5.57
2018-09-19T13:07:32.337Z,4.90
2018-09-19T13:10:04.871Z,5.63
2018-09-19T13:12:37.345Z,5.00
2018-09-19T13:15:09.585Z,4.93
2018-09-19T13:17:41.705Z,4.77
2018-09-19T13:20:13.794Z,4.87
2018-09-19T13:22:46.715Z,4.50
2018-09-19T13:25:20.082Z,4.67
2018-09-19T13:27:52.025Z,6.00
2018-09-19T13:30:24.470Z,4.07
2018-09-19T13:32:56.756Z,6.87
2018-09-19T13:35:29.370Z,5.20
2018-09-19T13:38:01.676Z,5.30
2018-09-19T13:40:34.009Z,6.60
2018-09-19T13:43:07.298Z,4.83
2018-09-19T13:45:39.540Z,5.17
2018-09-19T13:48:12.408Z,12.93
2018-09-19T13:51:04.355Z,6.97
2018-09-19T13:53:37.091Z,8.23
2018-09-19T13:56:09.369Z,5.03
2018-09-19T13:58:43.316Z,5.13
2018-09-19T14:01:17.170Z,5.30
2018-09-19T14:03:51.151Z,5.17
2018-09-19T14:06:25.451Z,6.70
2018-09-19T14:08:59.543Z,6.00
2018-09-19T14:11:33.273Z,5.60
2018-09-19T14:14:08.075Z,5.73
2018-09-19T14:16:42.078Z,5.60
2018-09-19T14:19:16.572Z,5.90
2018-09-19T14:21:51.123Z,5.27
2018-09-19T14:24:24.674Z,5.33
2018-09-19T14:27:00.086Z,6.83
2018-09-19T14:29:35.001Z,5.67
2018-09-19T14:32:09.539Z,5.60
2018-09-19T14:34:43.420Z,5.53
2018-09-19T14:37:17.585Z,5.20
2018-09-19T14:39:51.448Z,7.40
2018-09-19T14:42:25.508Z,6.33
2018-09-19T14:44:58.704Z,15.03
2018-09-19T14:47:32.317Z,8.10
2018-09-19T14:50:07.200Z,5.47
2018-09-19T14:52:41.346Z,6.37
2018-09-19T14:55:15.375Z,7.10
2018-09-19T14:57:49.229Z,4.93
2018-09-19T15:00:23.934Z,4.87
2018-09-19T15:02:58.780Z,6.70
2018-09-19T15:05:32.584Z,7.70
2018-09-19T15:08:05.733Z,5.47
2018-09-19T15:10:39.680Z,7.97
2018-09-19T15:13:13.163Z,6.53
2018-09-19T15:15:46.961Z,3.73
2018-09-19T15:18:21.272Z,12.20
2018-09-19T15:20:55.322Z,3.47
2018-09-19T15:23:29.067Z,10.40
2018-09-19T15:26:02.988Z,8.60
2018-09-19T15:28:37.483Z,4.33
2018-09-19T15:31:11.783Z,4.87
2018-09-19T15:33:45.682Z,4.90
2018-09-19T15:36:20.296Z,4.17
2018-09-19T15:38:54.447Z,9.37
2018-09-19T15:41:28.037Z,13.07
2018-09-19T15:44:02.500Z,5.13
2018-09-19T15:46:36.730Z,4.93
2018-09-19T15:49:10.515Z,4.47
2018-09-19T15:51:44.333Z,4.37
2018-09-19T15:54:20.253Z,4.87
2018-09-19T15:56:53.301Z,4.30
2018-09-19T15:59:28.066Z,4.47
2018-09-19T16:02:01.725Z,3.63
2018-09-19T16:04:35.779Z,4.17
2018-09-19T16:07:10.918Z,3.60
2018-09-19T16:09:45.859Z,5.57
2018-09-19T16:12:19.302Z,5.77
2018-09-19T16:14:53.582Z,3.77
2018-09-19T16:17:27.178Z,4.70
2018-09-19T16:20:00.630Z,5.13
2018-09-19T16:22:34.786Z,4.40
2018-09-19T16:25:09.500Z,4.37
2018-09-19T16:27:43.704Z,6.00
2018-09-19T16:30:17.608Z,4.07
2018-09-19T16:32:51.467Z,11.37
2018-09-19T16:35:26.003Z,3.43
2018-09-19T16:37:59.815Z,6.70
2018-09-19T16:40:36.049Z,4.40
2018-09-19T16:43:09.811Z,2.77
2018-09-19T16:45:43.753Z,5.93
2018-09-19T16:48:16.947Z,3.33
2018-09-19T16:50:51.722Z,4.97
2018-09-19T16:53:25.544Z,7.60
2018-09-19T16:56:00.519Z,7.47
2018-09-19T16:58:46.794Z,9.53
2018-09-19T17:01:30.624Z,4.63
2018-09-19T17:04:05.593Z,5.57
2018-09-19T17:06:42.397Z,4.53
2018-09-19T17:09:15.968Z,5.30
2018-09-19T17:11:48.646Z,9.23
2018-09-19T17:14:21.497Z,4.17
2018-09-19T17:16:54.184Z,5.43
2018-09-19T17:19:27.013Z,4.43
2018-09-19T17:21:59.528Z,3.93
2018-09-19T17:24:31.963Z,3.60
2018-09-19T17:27:04.756Z,2.90
2018-09-19T17:29:37.513Z,3.30
2018-09-19T17:32:10.578Z,4.10
2018-09-19T17:34:43.488Z,8.83
2018-09-19T17:37:16.678Z,2.30
2018-09-19T17:39:49.846Z,3.17
2018-09-19T17:42:22.693Z,3.17
2018-09-19T17:44:56.677Z,5.43
2018-09-19T17:47:29.416Z,2.03
2018-09-19T17:50:02.330Z,2.87
2018-09-19T17:52:34.798Z,7.43
2018-09-19T17:55:06.595Z,6.07
2018-09-19T17:57:39.179Z,5.53
2018-09-19T18:00:13.558Z,4.33
2018-09-19T18:02:46.044Z,4.07
2018-09-19T18:05:19.594Z,4.73
2018-09-19T18:07:52.300Z,3.73
2018-09-19T18:10:25.233Z,3.63
2018-09-19T18:12:57.985Z,8.27
2018-09-19T18:15:31.614Z,3.43
2018-09-19T18:18:05.291Z,3.27
2018-09-19T18:20:39.191Z,2.77
2018-09-19T18:23:12.476Z,5.23
2018-09-19T18:25:45.356Z,5.13
2018-09-19T18:28:18.546Z,3.73
2018-09-19T18:30:51.329Z,3.37
2018-09-19T18:33:24.675Z,2.87
2018-09-19T18:35:57.752Z,4.17
2018-09-19T18:38:30.789Z,2.63
2018-09-19T18:41:03.989Z,4.37
2018-09-19T18:43:36.741Z,4.23
2018-09-19T18:46:10.964Z,4.43
2018-09-19T18:48:43.082Z,2.83
2018-09-19T18:51:16.662Z,3.00
2018-09-19T18:53:51.540Z,3.37
2018-09-19T18:56:24.305Z,5.30
2018-09-19T18:58:57.057Z,4.13
2018-09-19T19:01:30.909Z,3.93
2018-09-19T19:04:03.918Z,4.83
2018-09-19T19:06:38.504Z,5.30
2018-09-19T19:09:12.657Z,4.23
2018-09-19T19:11:45.538Z,5.13
2018-09-19T19:14:18.807Z,5.57
2018-09-19T19:16:51.507Z,4.57
2018-09-19T19:19:24.208Z,2.53
2018-09-19T19:21:57.409Z,4.10
2018-09-19T19:24:30.669Z,2.83
2018-09-19T19:27:03.708Z,3.83
2018-09-19T19:29:36.816Z,3.07
2018-09-19T19:32:09.480Z,3.97
2018-09-19T19:34:42.255Z,2.70
2018-09-19T19:37:15.591Z,6.03
2018-09-19T19:39:48.598Z,3.60
2018-09-19T19:42:21.217Z,6.67
2018-09-19T19:44:53.667Z,4.87
2018-09-19T19:47:25.818Z,3.80
2018-09-19T19:49:58.108Z,5.63
2018-09-19T19:52:30.418Z,3.13
2018-09-19T19:55:02.786Z,8.17
2018-09-19T19:57:35.221Z,3.37
2018-09-19T20:00:07.571Z,4.17
2018-09-19T20:02:39.603Z,5.03
2018-09-19T20:05:12.950Z,3.90
2018-09-19T20:07:46.271Z,3.27
2018-09-19T20:10:18.517Z,7.33
2018-09-19T20:12:51.120Z,5.00
2018-09-19T20:15:24.678Z,4.57
2018-09-19T20:17:57.047Z,4.20
2018-09-19T20:20:30.040Z,5.10
2018-09-19T20:23:02.245Z,4.47
2018-09-19T20:25:34.856Z,5.63
2018-09-19T20:28:07.032Z,4.20
2018-09-19T20:30:39.158Z,4.80
2018-09-19T20:33:11.183Z,7.07
2018-09-19T20:35:43.343Z,5.93
2018-09-19T20:38:15.820Z,4.40
2018-09-19T20:40:48.133Z,6.50
2018-09-19T20:43:20.592Z,5.67
2018-09-19T20:45:53.111Z,7.83
2018-09-19T20:48:25.230Z,6.57
2018-09-19T20:50:58.327Z,8.07
2018-09-19T20:53:30.374Z,7.50
2018-09-19T20:56:03.186Z,7.47
2018-09-19T20:58:35.396Z,6.57
2018-09-19T21:01:07.808Z,6.07
2018-09-19T21:03:39.663Z,6.60
2018-09-19T21:06:11.671Z,7.17
2018-09-19T21:08:44.416Z,7.30
2018-09-19T21:11:17.551Z,8.60
2018-09-19T21:13:50.159Z,8.87
2018-09-19T21:16:22.846Z,8.83
2018-09-19T21:18:55.944Z,7.53
2018-09-19T21:21:28.526Z,7.33
2018-09-19T21:24:01.080Z,7.17
2018-09-19T21:26:33.388Z,8.70
2018-09-19T21:29:05.389Z,11.17
2018-09-19T21:31:38.658Z,6.97
2018-09-19T21:34:10.755Z,7.97
2018-09-19T21:36:42.956Z,10.70
2018-09-19T21:39:15.006Z,8.63
2018-09-19T21:41:47.121Z,9.50
2018-09-19T21:44:19.697Z,8.83
2018-09-19T21:46:53.288Z,8.87
2018-09-19T21:49:25.659Z,8.07
2018-09-19T21:51:58.927Z,9.33
2018-09-19T21:54:32.528Z,9.67
2018-09-19T21:57:04.529Z,10.80
2018-09-19T21:59:36.719Z,9.33
2018-09-19T22:02:08.846Z,7.50
2018-09-19T22:04:41.237Z,10.80
2018-09-19T22:09:48.089Z,9.47
2018-09-19T22:12:20.634Z,8.07
2018-09-19T22:14:53.044Z,7.80
2018-09-19T22:17:25.342Z,10.27
2018-09-19T22:19:57.394Z,10.87
2018-09-19T22:22:29.758Z,9.37
2018-09-19T22:25:02.519Z,9.93
2018-09-19T22:27:34.977Z,9.70
2018-09-19T22:30:07.670Z,9.53
2018-09-19T22:32:40.108Z,10.07
2018-09-19T22:35:12.671Z,8.93
2018-09-19T22:37:45.172Z,9.33
2018-09-19T22:40:17.785Z,10.43
2018-09-19T22:42:50.320Z,9.37
2018-09-19T22:45:22.499Z,10.97
2018-09-19T22:47:55.521Z,8.70
2018-09-19T22:50:28.230Z,12.67
2018-09-19T22:53:00.596Z,10.50
2018-09-19T22:55:33.378Z,9.70
2018-09-19T22:58:06.748Z,8.73
2018-09-19T23:00:40.104Z,10.33
2018-09-19T23:03:12.534Z,11.60
2018-09-19T23:05:45.971Z,9.63
2018-09-19T23:08:18.836Z,9.30
2018-09-19T23:10:52.226Z,9.67
2018-09-19T23:13:25.592Z,15.00
2018-09-19T23:15:58.786Z,11.40
2018-09-19T23:18:31.380Z,8.73
2018-09-19T23:21:03.566Z,8.57
2018-09-19T23:23:35.746Z,8.50
2018-09-19T23:26:08.564Z,8.37
2018-09-19T23:28:40.886Z,10.00
2018-09-19T23:31:13.296Z,9.37
2018-09-19T23:33:45.716Z,10.67
2018-09-19T23:36:18.441Z,10.20
2018-09-19T23:38:50.370Z,8.80
2018-09-19T23:41:22.299Z,10.37
2018-09-19T23:43:54.113Z,8.53
2018-09-19T23:46:26.531Z,9.17
2018-09-19T23:48:58.586Z,12.77
2018-09-19T23:51:31.120Z,12.07
2018-09-19T23:54:03.165Z,11.10
2018-09-19T23:56:36.205Z,10.40
2018-09-19T23:59:08.405Z,12.03
